sensor_id;sensor_type;location;lat;lon;timestamp;temperature;humidity
52979;DHT22;63430;53.186;6.598;2023-07-16T00:00:53;17.00;97.80
52979;DHT22;63430;53.186;6.598;2023-07-16T00:02:55;17.00;97.90
52979;DHT22;63430;53.186;6.598;2023-07-16T00:04:58;16.90;97.70
52979;DHT22;63430;53.186;6.598;2023-07-16T00:07:01;16.90;97.80
52979;DHT22;63430;53.186;6.598;2023-07-16T00:09:04;16.90;97.70
52979;DHT22;63430;53.186;6.598;2023-07-16T00:11:07;16.90;97.80
52979;DHT22;63430;53.186;6.598;2023-07-16T00:13:11;16.90;97.90
52979;DHT22;63430;53.186;6.598;2023-07-16T00:15:18;16.80;97.90
52979;DHT22;63430;53.186;6.598;2023-07-16T00:17:22;16.80;98.00
52979;DHT22;63430;53.186;6.598;2023-07-16T00:19:25;16.80;98.00
52979;DHT22;63430;53.186;6.598;2023-07-16T00:21:28;16.80;98.00
52979;DHT22;63430;53.186;6.598;2023-07-16T00:23:31;16.80;97.80
52979;DHT22;63430;53.186;6.598;2023-07-16T00:25:34;16.80;97.80
52979;DHT22;63430;53.186;6.598;2023-07-16T00:27:37;16.80;97.80
52979;DHT22;63430;53.186;6.598;2023-07-16T00:29:40;16.80;97.90
52979;DHT22;63430;53.186;6.598;2023-07-16T00:31:46;16.80;97.80
52979;DHT22;63430;53.186;6.598;2023-07-16T00:33:49;16.80;97.70
52979;DHT22;63430;53.186;6.598;2023-07-16T00:35:54;16.80;97.60
52979;DHT22;63430;53.186;6.598;2023-07-16T00:37:57;16.80;97.70
52979;DHT22;63430;53.186;6.598;2023-07-16T00:39:59;16.80;97.90
52979;DHT22;63430;53.186;6.598;2023-07-16T00:42:02;16.80;98.00
52979;DHT22;63430;53.186;6.598;2023-07-16T00:44:05;16.80;97.90
52979;DHT22;63430;53.186;6.598;2023-07-16T00:46:08;16.80;97.90
52979;DHT22;63430;53.186;6.598;2023-07-16T00:48:14;16.70;97.90
52979;DHT22;63430;53.186;6.598;2023-07-16T00:50:20;16.70;98.30
52979;DHT22;63430;53.186;6.598;2023-07-16T00:52:30;16.70;98.20
52979;DHT22;63430;53.186;6.598;2023-07-16T00:54:37;16.70;98.30
52979;DHT22;63430;53.186;6.598;2023-07-16T00:56:44;16.70;98.30
52979;DHT22;63430;53.186;6.598;2023-07-16T00:58:47;16.70;98.10
52979;DHT22;63430;53.186;6.598;2023-07-16T01:00:50;16.80;98.20
52979;DHT22;63430;53.186;6.598;2023-07-16T01:02:52;16.70;98.20
52979;DHT22;63430;53.186;6.598;2023-07-16T01:04:58;16.70;98.30
52979;DHT22;63430;53.186;6.598;2023-07-16T01:07:06;16.70;98.50
52979;DHT22;63430;53.186;6.598;2023-07-16T01:09:14;16.70;98.60
52979;DHT22;63430;53.186;6.598;2023-07-16T01:11:18;16.70;98.70
52979;DHT22;63430;53.186;6.598;2023-07-16T01:13:23;16.70;98.80
52979;DHT22;63430;53.186;6.598;2023-07-16T01:15:27;16.80;98.90
52979;DHT22;63430;53.186;6.598;2023-07-16T01:17:30;16.80;99.20
52979;DHT22;63430;53.186;6.598;2023-07-16T01:19:36;16.80;99.30
52979;DHT22;63430;53.186;6.598;2023-07-16T01:21:48;16.80;99.50
52979;DHT22;63430;53.186;6.598;2023-07-16T01:24:12;16.80;99.70
52979;DHT22;63430;53.186;6.598;2023-07-16T01:26:35;16.80;99.90
52979;DHT22;63430;53.186;6.598;2023-07-16T01:29:13;16.80;99.70
52979;DHT22;63430;53.186;6.598;2023-07-16T01:31:19;16.80;99.90
52979;DHT22;63430;53.186;6.598;2023-07-16T01:33:26;16.90;99.70
52979;DHT22;63430;53.186;6.598;2023-07-16T01:35:31;16.80;99.80
52979;DHT22;63430;53.186;6.598;2023-07-16T01:37:38;16.80;99.90
52979;DHT22;63430;53.186;6.598;2023-07-16T01:39:44;16.80;99.90
52979;DHT22;63430;53.186;6.598;2023-07-16T01:41:51;16.80;99.90
52979;DHT22;63430;53.186;6.598;2023-07-16T01:43:54;16.80;99.90
52979;DHT22;63430;53.186;6.598;2023-07-16T01:46:01;16.80;99.90
52979;DHT22;63430;53.186;6.598;2023-07-16T01:48:13;16.80;99.90
52979;DHT22;63430;53.186;6.598;2023-07-16T01:50:17;16.80;99.90
52979;DHT22;63430;53.186;6.598;2023-07-16T01:52:20;16.80;99.90
52979;DHT22;63430;53.186;6.598;2023-07-16T01:54:23;16.80;99.90
52979;DHT22;63430;53.186;6.598;2023-07-16T01:56:32;16.80;99.90
52979;DHT22;63430;53.186;6.598;2023-07-16T01:58:35;16.80;99.90
52979;DHT22;63430;53.186;6.598;2023-07-16T02:00:45;16.70;99.90
52979;DHT22;63430;53.186;6.598;2023-07-16T02:02:53;16.80;99.90
52979;DHT22;63430;53.186;6.598;2023-07-16T02:04:56;16.70;99.90
52979;DHT22;63430;53.186;6.598;2023-07-16T02:06:59;16.70;99.90
52979;DHT22;63430;53.186;6.598;2023-07-16T02:09:03;16.70;99.90
52979;DHT22;63430;53.186;6.598;2023-07-16T02:11:05;16.70;99.90
52979;DHT22;63430;53.186;6.598;2023-07-16T02:13:13;16.70;99.90
52979;DHT22;63430;53.186;6.598;2023-07-16T02:15:16;16.70;99.90
52979;DHT22;63430;53.186;6.598;2023-07-16T02:17:20;16.70;99.90
52979;DHT22;63430;53.186;6.598;2023-07-16T02:19:26;16.60;99.90
52979;DHT22;63430;53.186;6.598;2023-07-16T02:21:30;16.60;99.90
52979;DHT22;63430;53.186;6.598;2023-07-16T02:23:34;16.60;99.90
52979;DHT22;63430;53.186;6.598;2023-07-16T02:25:37;16.70;99.90
52979;DHT22;63430;53.186;6.598;2023-07-16T02:27:40;16.70;99.90
52979;DHT22;63430;53.186;6.598;2023-07-16T02:29:45;16.60;99.90
52979;DHT22;63430;53.186;6.598;2023-07-16T02:31:49;16.60;99.90
52979;DHT22;63430;53.186;6.598;2023-07-16T02:33:52;16.60;99.90
52979;DHT22;63430;53.186;6.598;2023-07-16T02:35:58;16.60;99.90
52979;DHT22;63430;53.186;6.598;2023-07-16T02:38:03;16.60;99.90
52979;DHT22;63430;53.186;6.598;2023-07-16T02:40:08;16.60;99.90
52979;DHT22;63430;53.186;6.598;2023-07-16T02:42:11;16.70;99.90
52979;DHT22;63430;53.186;6.598;2023-07-16T02:44:14;16.70;99.90
52979;DHT22;63430;53.186;6.598;2023-07-16T02:46:19;16.70;99.90
52979;DHT22;63430;53.186;6.598;2023-07-16T02:48:24;16.70;99.90
52979;DHT22;63430;53.186;6.598;2023-07-16T02:50:29;16.70;99.90
52979;DHT22;63430;53.186;6.598;2023-07-16T02:52:35;16.70;99.90
52979;DHT22;63430;53.186;6.598;2023-07-16T02:54:38;16.80;99.90
52979;DHT22;63430;53.186;6.598;2023-07-16T02:56:41;16.80;99.90
52979;DHT22;63430;53.186;6.598;2023-07-16T02:58:43;16.80;99.90
52979;DHT22;63430;53.186;6.598;2023-07-16T03:00:46;16.80;99.90
52979;DHT22;63430;53.186;6.598;2023-07-16T03:02:49;16.80;99.90
52979;DHT22;63430;53.186;6.598;2023-07-16T03:04:55;16.80;99.90
52979;DHT22;63430;53.186;6.598;2023-07-16T03:06:59;16.70;99.90
52979;DHT22;63430;53.186;6.598;2023-07-16T03:09:07;16.80;99.50
52979;DHT22;63430;53.186;6.598;2023-07-16T03:11:12;16.80;99.50
52979;DHT22;63430;53.186;6.598;2023-07-16T03:13:16;16.80;99.70
52979;DHT22;63430;53.186;6.598;2023-07-16T03:15:29;16.80;99.60
52979;DHT22;63430;53.186;6.598;2023-07-16T03:17:33;16.80;99.70
52979;DHT22;63430;53.186;6.598;2023-07-16T03:19:36;16.80;99.70
52979;DHT22;63430;53.186;6.598;2023-07-16T03:21:39;16.80;99.70
52979;DHT22;63430;53.186;6.598;2023-07-16T03:23:42;16.70;99.60
52979;DHT22;63430;53.186;6.598;2023-07-16T03:25:47;16.80;99.40
52979;DHT22;63430;53.186;6.598;2023-07-16T03:27:50;16.70;99.40
52979;DHT22;63430;53.186;6.598;2023-07-16T03:29:53;16.70;99.50
52979;DHT22;63430;53.186;6.598;2023-07-16T03:31:59;16.70;99.40
52979;DHT22;63430;53.186;6.598;2023-07-16T03:34:04;16.70;99.50
52979;DHT22;63430;53.186;6.598;2023-07-16T03:36:08;16.70;99.60
52979;DHT22;63430;53.186;6.598;2023-07-16T03:38:16;16.70;99.60
52979;DHT22;63430;53.186;6.598;2023-07-16T03:40:24;16.70;99.60
52979;DHT22;63430;53.186;6.598;2023-07-16T03:42:30;16.70;99.60
52979;DHT22;63430;53.186;6.598;2023-07-16T03:44:36;16.60;99.70
52979;DHT22;63430;53.186;6.598;2023-07-16T03:46:39;16.70;99.90
52979;DHT22;63430;53.186;6.598;2023-07-16T03:48:47;16.70;99.80
52979;DHT22;63430;53.186;6.598;2023-07-16T03:50:54;16.70;99.90
52979;DHT22;63430;53.186;6.598;2023-07-16T03:52:57;16.70;99.90
52979;DHT22;63430;53.186;6.598;2023-07-16T03:55:04;16.60;99.90
52979;DHT22;63430;53.186;6.598;2023-07-16T03:57:14;16.60;99.90
52979;DHT22;63430;53.186;6.598;2023-07-16T03:59:20;16.70;99.90
52979;DHT22;63430;53.186;6.598;2023-07-16T04:01:26;16.60;99.90
52979;DHT22;63430;53.186;6.598;2023-07-16T04:03:29;16.60;99.90
52979;DHT22;63430;53.186;6.598;2023-07-16T04:05:33;16.60;99.90
52979;DHT22;63430;53.186;6.598;2023-07-16T04:07:36;16.70;99.90
52979;DHT22;63430;53.186;6.598;2023-07-16T04:09:39;16.70;99.90
52979;DHT22;63430;53.186;6.598;2023-07-16T04:11:42;16.40;99.90
52979;DHT22;63430;53.186;6.598;2023-07-16T04:13:45;16.70;99.90
52979;DHT22;63430;53.186;6.598;2023-07-16T04:15:50;16.70;99.90
52979;DHT22;63430;53.186;6.598;2023-07-16T04:17:55;16.70;99.90
52979;DHT22;63430;53.186;6.598;2023-07-16T04:19:58;16.70;99.90
52979;DHT22;63430;53.186;6.598;2023-07-16T04:22:01;16.70;99.90
52979;DHT22;63430;53.186;6.598;2023-07-16T04:24:04;16.70;99.90
52979;DHT22;63430;53.186;6.598;2023-07-16T04:26:08;16.70;99.90
52979;DHT22;63430;53.186;6.598;2023-07-16T04:28:11;16.70;99.90
52979;DHT22;63430;53.186;6.598;2023-07-16T04:30:14;16.70;99.90
52979;DHT22;63430;53.186;6.598;2023-07-16T04:32:19;16.70;99.90
52979;DHT22;63430;53.186;6.598;2023-07-16T04:34:22;16.70;99.90
52979;DHT22;63430;53.186;6.598;2023-07-16T04:36:28;16.70;99.90
52979;DHT22;63430;53.186;6.598;2023-07-16T04:38:31;16.70;99.90
52979;DHT22;63430;53.186;6.598;2023-07-16T04:40:33;16.70;99.90
52979;DHT22;63430;53.186;6.598;2023-07-16T04:42:36;16.70;99.90
52979;DHT22;63430;53.186;6.598;2023-07-16T04:44:39;16.70;99.90
52979;DHT22;63430;53.186;6.598;2023-07-16T04:46:46;16.80;99.90
52979;DHT22;63430;53.186;6.598;2023-07-16T04:48:54;16.80;99.90
52979;DHT22;63430;53.186;6.598;2023-07-16T04:50:58;16.80;99.90
52979;DHT22;63430;53.186;6.598;2023-07-16T04:53:01;16.80;99.90
52979;DHT22;63430;53.186;6.598;2023-07-16T04:55:06;16.90;99.90
52979;DHT22;63430;53.186;6.598;2023-07-16T04:57:12;16.90;99.90
52979;DHT22;63430;53.186;6.598;2023-07-16T04:59:19;16.90;99.90
52979;DHT22;63430;53.186;6.598;2023-07-16T05:01:25;17.00;99.90
52979;DHT22;63430;53.186;6.598;2023-07-16T05:03:29;17.00;99.90
52979;DHT22;63430;53.186;6.598;2023-07-16T05:05:39;17.00;99.90
52979;DHT22;63430;53.186;6.598;2023-07-16T05:07:43;17.10;99.90
52979;DHT22;63430;53.186;6.598;2023-07-16T05:09:50;17.10;99.90
52979;DHT22;63430;53.186;6.598;2023-07-16T05:11:56;17.10;99.90
52979;DHT22;63430;53.186;6.598;2023-07-16T05:13:59;17.10;99.90
52979;DHT22;63430;53.186;6.598;2023-07-16T05:16:04;17.20;99.90
52979;DHT22;63430;53.186;6.598;2023-07-16T05:18:11;17.20;99.90
52979;DHT22;63430;53.186;6.598;2023-07-16T05:20:14;17.30;99.90
52979;DHT22;63430;53.186;6.598;2023-07-16T05:22:25;17.30;99.90
52979;DHT22;63430;53.186;6.598;2023-07-16T05:24:29;17.30;99.90
52979;DHT22;63430;53.186;6.598;2023-07-16T05:26:34;17.30;99.90
52979;DHT22;63430;53.186;6.598;2023-07-16T05:28:39;17.30;99.90
52979;DHT22;63430;53.186;6.598;2023-07-16T05:30:44;17.40;99.90
52979;DHT22;63430;53.186;6.598;2023-07-16T05:32:47;17.40;99.90
52979;DHT22;63430;53.186;6.598;2023-07-16T05:34:52;17.40;99.90
52979;DHT22;63430;53.186;6.598;2023-07-16T05:36:59;17.40;99.90
52979;DHT22;63430;53.186;6.598;2023-07-16T05:39:05;17.50;99.90
52979;DHT22;63430;53.186;6.598;2023-07-16T05:41:11;17.60;99.90
52979;DHT22;63430;53.186;6.598;2023-07-16T05:43:13;17.70;99.90
52979;DHT22;63430;53.186;6.598;2023-07-16T05:45:17;17.70;99.90
52979;DHT22;63430;53.186;6.598;2023-07-16T05:47:20;17.70;99.90
52979;DHT22;63430;53.186;6.598;2023-07-16T05:49:23;17.70;99.90
52979;DHT22;63430;53.186;6.598;2023-07-16T05:51:31;17.70;99.90
52979;DHT22;63430;53.186;6.598;2023-07-16T05:53:40;17.70;99.90
52979;DHT22;63430;53.186;6.598;2023-07-16T05:55:45;17.70;99.90
52979;DHT22;63430;53.186;6.598;2023-07-16T05:57:48;17.80;99.90
52979;DHT22;63430;53.186;6.598;2023-07-16T05:59:51;17.90;99.90
52979;DHT22;63430;53.186;6.598;2023-07-16T06:01:57;18.00;99.90
52979;DHT22;63430;53.186;6.598;2023-07-16T06:04:04;18.00;99.90
52979;DHT22;63430;53.186;6.598;2023-07-16T06:06:08;18.10;99.90
52979;DHT22;63430;53.186;6.598;2023-07-16T06:08:13;18.20;99.80
52979;DHT22;63430;53.186;6.598;2023-07-16T06:10:17;18.30;99.80
52979;DHT22;63430;53.186;6.598;2023-07-16T06:12:23;18.40;99.40
52979;DHT22;63430;53.186;6.598;2023-07-16T06:14:35;18.40;99.40
52979;DHT22;63430;53.186;6.598;2023-07-16T06:16:38;18.40;99.10
52979;DHT22;63430;53.186;6.598;2023-07-16T06:18:41;18.40;99.50
52979;DHT22;63430;53.186;6.598;2023-07-16T06:20:55;18.40;99.80
52979;DHT22;63430;53.186;6.598;2023-07-16T06:22:58;18.40;99.90
52979;DHT22;63430;53.186;6.598;2023-07-16T06:25:03;18.40;99.90
52979;DHT22;63430;53.186;6.598;2023-07-16T06:27:07;18.50;99.80
52979;DHT22;63430;53.186;6.598;2023-07-16T06:29:12;18.50;99.80
52979;DHT22;63430;53.186;6.598;2023-07-16T06:31:16;18.50;99.70
52979;DHT22;63430;53.186;6.598;2023-07-16T06:33:21;18.50;99.60
52979;DHT22;63430;53.186;6.598;2023-07-16T06:35:26;18.40;99.60
52979;DHT22;63430;53.186;6.598;2023-07-16T06:37:31;18.30;99.90
52979;DHT22;63430;53.186;6.598;2023-07-16T06:39:34;18.30;99.90
52979;DHT22;63430;53.186;6.598;2023-07-16T06:41:42;18.20;99.90
52979;DHT22;63430;53.186;6.598;2023-07-16T06:43:45;18.10;99.90
52979;DHT22;63430;53.186;6.598;2023-07-16T06:45:51;18.10;99.90
52979;DHT22;63430;53.186;6.598;2023-07-16T06:48:00;18.10;99.90
52979;DHT22;63430;53.186;6.598;2023-07-16T06:50:06;18.10;99.90
52979;DHT22;63430;53.186;6.598;2023-07-16T06:52:18;18.20;99.90
52979;DHT22;63430;53.186;6.598;2023-07-16T06:54:21;18.20;99.90
52979;DHT22;63430;53.186;6.598;2023-07-16T06:56:26;18.20;99.90
52979;DHT22;63430;53.186;6.598;2023-07-16T06:58:32;18.30;99.90
52979;DHT22;63430;53.186;6.598;2023-07-16T07:00:36;18.30;99.90
52979;DHT22;63430;53.186;6.598;2023-07-16T07:02:48;18.40;99.90
52979;DHT22;63430;53.186;6.598;2023-07-16T07:04:52;18.50;99.90
52979;DHT22;63430;53.186;6.598;2023-07-16T07:06:54;18.60;99.90
52979;DHT22;63430;53.186;6.598;2023-07-16T07:08:57;18.60;99.90
52979;DHT22;63430;53.186;6.598;2023-07-16T07:11:05;18.70;99.40
52979;DHT22;63430;53.186;6.598;2023-07-16T07:13:11;18.70;99.40
52979;DHT22;63430;53.186;6.598;2023-07-16T07:15:16;18.70;99.00
52979;DHT22;63430;53.186;6.598;2023-07-16T07:17:19;18.90;99.10
52979;DHT22;63430;53.186;6.598;2023-07-16T07:19:25;19.10;98.80
52979;DHT22;63430;53.186;6.598;2023-07-16T07:21:29;19.30;98.70
52979;DHT22;63430;53.186;6.598;2023-07-16T07:23:32;19.20;98.00
52979;DHT22;63430;53.186;6.598;2023-07-16T07:25:37;19.20;97.90
52979;DHT22;63430;53.186;6.598;2023-07-16T07:27:42;19.10;97.70
52979;DHT22;63430;53.186;6.598;2023-07-16T07:29:45;19.00;97.90
52979;DHT22;63430;53.186;6.598;2023-07-16T07:31:49;18.90;97.90
52979;DHT22;63430;53.186;6.598;2023-07-16T07:33:54;18.80;97.80
52979;DHT22;63430;53.186;6.598;2023-07-16T07:36:02;18.70;98.10
52979;DHT22;63430;53.186;6.598;2023-07-16T07:38:05;18.70;98.20
52979;DHT22;63430;53.186;6.598;2023-07-16T07:40:09;18.60;98.30
52979;DHT22;63430;53.186;6.598;2023-07-16T07:42:12;18.50;98.50
52979;DHT22;63430;53.186;6.598;2023-07-16T07:44:15;18.50;98.70
52979;DHT22;63430;53.186;6.598;2023-07-16T07:46:18;18.60;99.00
52979;DHT22;63430;53.186;6.598;2023-07-16T07:48:22;18.70;98.80
52979;DHT22;63430;53.186;6.598;2023-07-16T07:50:27;18.80;98.70
52979;DHT22;63430;53.186;6.598;2023-07-16T07:52:34;18.80;98.60
52979;DHT22;63430;53.186;6.598;2023-07-16T07:54:37;18.80;98.20
52979;DHT22;63430;53.186;6.598;2023-07-16T07:56:40;18.80;98.00
52979;DHT22;63430;53.186;6.598;2023-07-16T07:58:43;18.70;97.00
52979;DHT22;63430;53.186;6.598;2023-07-16T08:00:46;18.60;96.90
52979;DHT22;63430;53.186;6.598;2023-07-16T08:02:49;18.60;97.00
52979;DHT22;63430;53.186;6.598;2023-07-16T08:04:52;18.50;97.30
52979;DHT22;63430;53.186;6.598;2023-07-16T08:06:56;18.50;97.30
52979;DHT22;63430;53.186;6.598;2023-07-16T08:09:02;18.50;97.50
52979;DHT22;63430;53.186;6.598;2023-07-16T08:11:05;18.60;97.60
52979;DHT22;63430;53.186;6.598;2023-07-16T08:13:11;18.70;97.40
52979;DHT22;63430;53.186;6.598;2023-07-16T08:15:15;18.70;97.00
52979;DHT22;63430;53.186;6.598;2023-07-16T08:17:17;18.80;97.10
52979;DHT22;63430;53.186;6.598;2023-07-16T08:19:28;18.70;97.10
52979;DHT22;63430;53.186;6.598;2023-07-16T08:21:32;18.70;97.10
52979;DHT22;63430;53.186;6.598;2023-07-16T08:23:36;18.70;97.00
52979;DHT22;63430;53.186;6.598;2023-07-16T08:25:42;18.70;97.10
52979;DHT22;63430;53.186;6.598;2023-07-16T08:27:48;18.60;97.30
52979;DHT22;63430;53.186;6.598;2023-07-16T08:29:51;18.50;98.90
52979;DHT22;63430;53.186;6.598;2023-07-16T08:31:58;18.30;99.50
52979;DHT22;63430;53.186;6.598;2023-07-16T08:34:02;18.20;99.90
52979;DHT22;63430;53.186;6.598;2023-07-16T08:36:06;18.10;99.90
52979;DHT22;63430;53.186;6.598;2023-07-16T08:38:09;18.10;99.90
52979;DHT22;63430;53.186;6.598;2023-07-16T08:40:13;18.10;99.90
52979;DHT22;63430;53.186;6.598;2023-07-16T08:42:18;18.10;99.90
52979;DHT22;63430;53.186;6.598;2023-07-16T08:44:21;18.10;99.90
52979;DHT22;63430;53.186;6.598;2023-07-16T08:46:24;18.00;99.90
52979;DHT22;63430;53.186;6.598;2023-07-16T08:48:28;18.10;99.90
52979;DHT22;63430;53.186;6.598;2023-07-16T08:50:32;18.30;99.90
52979;DHT22;63430;53.186;6.598;2023-07-16T08:52:38;18.50;99.90
52979;DHT22;63430;53.186;6.598;2023-07-16T08:54:44;18.80;99.90
52979;DHT22;63430;53.186;6.598;2023-07-16T08:56:47;19.00;99.40
52979;DHT22;63430;53.186;6.598;2023-07-16T08:58:53;19.30;98.60
52979;DHT22;63430;53.186;6.598;2023-07-16T09:00:59;19.50;97.60
52979;DHT22;63430;53.186;6.598;2023-07-16T09:03:03;19.60;96.80
52979;DHT22;63430;53.186;6.598;2023-07-16T09:05:09;19.80;96.50
52979;DHT22;63430;53.186;6.598;2023-07-16T09:07:22;19.90;96.30
52979;DHT22;63430;53.186;6.598;2023-07-16T09:09:28;19.90;94.80
52979;DHT22;63430;53.186;6.598;2023-07-16T09:11:33;19.90;92.70
52979;DHT22;63430;53.186;6.598;2023-07-16T09:13:43;19.80;92.60
52979;DHT22;63430;53.186;6.598;2023-07-16T09:15:53;19.80;92.70
52979;DHT22;63430;53.186;6.598;2023-07-16T09:17:56;19.90;92.20
52979;DHT22;63430;53.186;6.598;2023-07-16T09:20:10;20.20;92.40
52979;DHT22;63430;53.186;6.598;2023-07-16T09:22:13;20.40;91.10
52979;DHT22;63430;53.186;6.598;2023-07-16T09:24:16;20.50;91.00
52979;DHT22;63430;53.186;6.598;2023-07-16T09:26:22;20.40;89.90
52979;DHT22;63430;53.186;6.598;2023-07-16T09:28:26;20.30;89.00
52979;DHT22;63430;53.186;6.598;2023-07-16T09:30:31;20.10;87.60
52979;DHT22;63430;53.186;6.598;2023-07-16T09:32:39;19.90;88.60
52979;DHT22;63430;53.186;6.598;2023-07-16T09:34:48;19.80;90.40
52979;DHT22;63430;53.186;6.598;2023-07-16T09:36:52;19.70;91.10
52979;DHT22;63430;53.186;6.598;2023-07-16T09:38:57;19.70;91.40
52979;DHT22;63430;53.186;6.598;2023-07-16T09:41:03;19.70;91.70
52979;DHT22;63430;53.186;6.598;2023-07-16T09:43:08;19.60;91.50
52979;DHT22;63430;53.186;6.598;2023-07-16T09:45:18;19.60;91.70
52979;DHT22;63430;53.186;6.598;2023-07-16T09:47:22;19.50;92.00
52979;DHT22;63430;53.186;6.598;2023-07-16T09:49:31;19.50;92.50
52979;DHT22;63430;53.186;6.598;2023-07-16T09:51:36;19.60;93.40
52979;DHT22;63430;53.186;6.598;2023-07-16T09:53:41;19.90;93.20
52979;DHT22;63430;53.186;6.598;2023-07-16T09:55:44;20.00;93.00
52979;DHT22;63430;53.186;6.598;2023-07-16T09:57:52;20.00;92.60
52979;DHT22;63430;53.186;6.598;2023-07-16T09:59:56;20.00;92.20
52979;DHT22;63430;53.186;6.598;2023-07-16T10:02:01;19.90;92.50
52979;DHT22;63430;53.186;6.598;2023-07-16T10:04:13;19.90;92.10
52979;DHT22;63430;53.186;6.598;2023-07-16T10:06:22;20.10;92.40
52979;DHT22;63430;53.186;6.598;2023-07-16T10:08:24;20.40;92.20
52979;DHT22;63430;53.186;6.598;2023-07-16T10:10:39;20.60;91.80
52979;DHT22;63430;53.186;6.598;2023-07-16T10:12:42;20.80;91.20
52979;DHT22;63430;53.186;6.598;2023-07-16T10:14:47;20.90;88.90
52979;DHT22;63430;53.186;6.598;2023-07-16T10:16:50;20.80;86.50
52979;DHT22;63430;53.186;6.598;2023-07-16T10:18:57;20.70;87.50
52979;DHT22;63430;53.186;6.598;2023-07-16T10:21:02;20.60;87.90
52979;DHT22;63430;53.186;6.598;2023-07-16T10:23:16;20.40;86.60
52979;DHT22;63430;53.186;6.598;2023-07-16T10:25:24;20.40;86.80
52979;DHT22;63430;53.186;6.598;2023-07-16T10:27:30;20.40;86.70
52979;DHT22;63430;53.186;6.598;2023-07-16T10:29:36;20.50;87.30
52979;DHT22;63430;53.186;6.598;2023-07-16T10:31:39;20.70;87.80
52979;DHT22;63430;53.186;6.598;2023-07-16T10:33:41;20.90;86.90
52979;DHT22;63430;53.186;6.598;2023-07-16T10:35:46;21.00;83.60
52979;DHT22;63430;53.186;6.598;2023-07-16T10:37:49;21.00;82.40
52979;DHT22;63430;53.186;6.598;2023-07-16T10:39:59;20.80;81.40
52979;DHT22;63430;53.186;6.598;2023-07-16T10:42:02;20.60;81.60
52979;DHT22;63430;53.186;6.598;2023-07-16T10:44:08;20.50;80.60
52979;DHT22;63430;53.186;6.598;2023-07-16T10:46:12;20.40;82.10
52979;DHT22;63430;53.186;6.598;2023-07-16T10:48:17;20.30;83.70
52979;DHT22;63430;53.186;6.598;2023-07-16T10:50:21;20.10;85.00
52979;DHT22;63430;53.186;6.598;2023-07-16T10:52:26;20.00;85.80
52979;DHT22;63430;53.186;6.598;2023-07-16T10:54:30;20.20;86.90
52979;DHT22;63430;53.186;6.598;2023-07-16T10:56:36;20.40;86.60
52979;DHT22;63430;53.186;6.598;2023-07-16T10:58:40;20.60;87.30
52979;DHT22;63430;53.186;6.598;2023-07-16T11:00:45;20.70;86.00
52979;DHT22;63430;53.186;6.598;2023-07-16T11:02:49;20.80;85.00
52979;DHT22;63430;53.186;6.598;2023-07-16T11:04:53;20.80;86.10
52979;DHT22;63430;53.186;6.598;2023-07-16T11:06:58;20.90;84.30
52979;DHT22;63430;53.186;6.598;2023-07-16T11:09:06;21.00;84.30
52979;DHT22;63430;53.186;6.598;2023-07-16T11:11:10;21.00;84.20
52979;DHT22;63430;53.186;6.598;2023-07-16T11:13:15;21.00;84.80
52979;DHT22;63430;53.186;6.598;2023-07-16T11:15:18;21.10;84.00
52979;DHT22;63430;53.186;6.598;2023-07-16T11:17:22;21.10;82.20
52979;DHT22;63430;53.186;6.598;2023-07-16T11:19:27;21.00;81.80
52979;DHT22;63430;53.186;6.598;2023-07-16T11:21:30;20.90;81.10
52979;DHT22;63430;53.186;6.598;2023-07-16T11:23:36;20.90;81.60
52979;DHT22;63430;53.186;6.598;2023-07-16T11:25:46;20.80;81.70
52979;DHT22;63430;53.186;6.598;2023-07-16T11:27:49;20.70;81.60
52979;DHT22;63430;53.186;6.598;2023-07-16T11:30:00;20.60;82.80
52979;DHT22;63430;53.186;6.598;2023-07-16T11:32:05;20.50;83.60
52979;DHT22;63430;53.186;6.598;2023-07-16T11:34:08;20.40;82.70
52979;DHT22;63430;53.186;6.598;2023-07-16T11:36:17;20.30;82.20
52979;DHT22;63430;53.186;6.598;2023-07-16T11:38:20;20.20;82.60
52979;DHT22;63430;53.186;6.598;2023-07-16T11:40:24;20.20;83.20
52979;DHT22;63430;53.186;6.598;2023-07-16T11:42:30;20.40;83.80
52979;DHT22;63430;53.186;6.598;2023-07-16T11:44:34;20.70;82.80
52979;DHT22;63430;53.186;6.598;2023-07-16T11:46:40;20.70;81.80
52979;DHT22;63430;53.186;6.598;2023-07-16T11:48:43;20.70;81.60
52979;DHT22;63430;53.186;6.598;2023-07-16T11:50:45;20.60;81.70
52979;DHT22;63430;53.186;6.598;2023-07-16T11:52:52;20.50;82.30
52979;DHT22;63430;53.186;6.598;2023-07-16T11:54:58;20.50;83.20
52979;DHT22;63430;53.186;6.598;2023-07-16T11:57:09;20.40;82.60
52979;DHT22;63430;53.186;6.598;2023-07-16T11:59:23;20.30;83.50
52979;DHT22;63430;53.186;6.598;2023-07-16T12:01:26;20.20;83.40
52979;DHT22;63430;53.186;6.598;2023-07-16T12:03:31;20.10;84.60
52979;DHT22;63430;53.186;6.598;2023-07-16T12:05:38;20.10;84.70
52979;DHT22;63430;53.186;6.598;2023-07-16T12:07:55;20.00;86.20
52979;DHT22;63430;53.186;6.598;2023-07-16T12:09:58;20.10;87.20
52979;DHT22;63430;53.186;6.598;2023-07-16T12:12:02;20.10;86.90
52979;DHT22;63430;53.186;6.598;2023-07-16T12:14:05;20.20;87.50
52979;DHT22;63430;53.186;6.598;2023-07-16T12:16:08;20.30;87.20
52979;DHT22;63430;53.186;6.598;2023-07-16T12:18:11;20.40;86.80
52979;DHT22;63430;53.186;6.598;2023-07-16T12:20:17;20.30;87.20
52979;DHT22;63430;53.186;6.598;2023-07-16T12:22:20;20.30;87.60
52979;DHT22;63430;53.186;6.598;2023-07-16T12:24:24;20.30;88.50
52979;DHT22;63430;53.186;6.598;2023-07-16T12:26:28;20.20;88.50
52979;DHT22;63430;53.186;6.598;2023-07-16T12:28:31;20.00;89.90
52979;DHT22;63430;53.186;6.598;2023-07-16T12:30:35;20.00;90.90
52979;DHT22;63430;53.186;6.598;2023-07-16T12:32:38;19.90;92.00
52979;DHT22;63430;53.186;6.598;2023-07-16T12:34:42;20.10;92.70
52979;DHT22;63430;53.186;6.598;2023-07-16T12:36:49;20.20;92.70
52979;DHT22;63430;53.186;6.598;2023-07-16T12:38:52;20.30;92.10
52979;DHT22;63430;53.186;6.598;2023-07-16T12:40:56;20.30;91.70
52979;DHT22;63430;53.186;6.598;2023-07-16T12:42:59;20.30;91.70
52979;DHT22;63430;53.186;6.598;2023-07-16T12:45:03;20.30;91.70
52979;DHT22;63430;53.186;6.598;2023-07-16T12:47:09;20.30;91.40
52979;DHT22;63430;53.186;6.598;2023-07-16T12:49:12;20.30;91.50
52979;DHT22;63430;53.186;6.598;2023-07-16T12:51:16;20.20;91.20
52979;DHT22;63430;53.186;6.598;2023-07-16T12:53:23;20.20;91.60
52979;DHT22;63430;53.186;6.598;2023-07-16T12:55:26;20.30;91.70
52979;DHT22;63430;53.186;6.598;2023-07-16T12:57:29;20.60;91.70
52979;DHT22;63430;53.186;6.598;2023-07-16T12:59:31;20.60;91.40
52979;DHT22;63430;53.186;6.598;2023-07-16T13:01:34;20.70;91.50
52979;DHT22;63430;53.186;6.598;2023-07-16T13:03:37;20.70;91.40
52979;DHT22;63430;53.186;6.598;2023-07-16T13:05:40;20.60;91.40
52979;DHT22;63430;53.186;6.598;2023-07-16T13:07:44;20.60;91.40
52979;DHT22;63430;53.186;6.598;2023-07-16T13:09:50;20.60;91.50